createdAt,value
2022-09-14T00:01:33.122Z,17.40
2022-09-14T00:04:23.261Z,17.30
2022-09-14T00:06:52.766Z,17.30
2022-09-14T00:09:23.114Z,17.30
2022-09-14T00:11:51.386Z,17.30
2022-09-14T00:14:19.642Z,17.30
2022-09-14T00:16:47.090Z,17.30
2022-09-14T00:19:24.311Z,17.30
2022-09-14T00:21:59.036Z,17.30
2022-09-14T00:24:28.313Z,17.30
2022-09-14T00:26:55.764Z,17.30
2022-09-14T00:29:24.178Z,17.30
2022-09-14T00:31:52.101Z,17.40
2022-09-14T00:34:19.490Z,17.40
2022-09-14T00:36:49.698Z,17.40
2022-09-14T00:39:19.176Z,17.40
2022-09-14T00:41:48.113Z,17.50
2022-09-14T00:44:15.251Z,17.50
2022-09-14T00:46:48.510Z,17.60
2022-09-14T00:49:39.036Z,17.60
2022-09-14T00:52:09.202Z,17.70
2022-09-14T00:54:55.387Z,17.70
2022-09-14T00:57:23.465Z,17.80
2022-09-14T00:59:52.434Z,17.80
2022-09-14T01:02:22.530Z,17.90
2022-09-14T01:04:51.039Z,17.90
2022-09-14T01:07:24.011Z,17.90
2022-09-14T01:10:04.139Z,17.90
2022-09-14T01:12:57.381Z,17.90
2022-09-14T01:15:54.006Z,17.90
2022-09-14T01:18:30.325Z,17.80
2022-09-14T01:21:03.928Z,17.80
2022-09-14T01:23:46.971Z,17.80
2022-09-14T01:26:34.985Z,17.70
2022-09-14T01:29:06.378Z,17.70
2022-09-14T01:31:54.500Z,17.70
2022-09-14T01:34:34.262Z,17.70
2022-09-14T01:37:13.133Z,17.60
2022-09-14T01:39:52.047Z,17.60
2022-09-14T01:42:22.655Z,17.50
2022-09-14T01:44:55.437Z,17.60
2022-09-14T01:47:31.250Z,17.50
2022-09-14T01:50:12.457Z,17.50
2022-09-14T01:52:50.144Z,17.50
2022-09-14T01:55:25.975Z,17.50
2022-09-14T01:58:20.978Z,17.50
2022-09-14T02:00:50.051Z,17.50
2022-09-14T02:03:26.088Z,17.60
2022-09-14T02:05:57.949Z,17.60
2022-09-14T02:08:28.048Z,17.60
2022-09-14T02:10:57.412Z,17.60
2022-09-14T02:13:25.338Z,17.50
2022-09-14T02:15:52.762Z,17.40
2022-09-14T02:18:20.610Z,17.40
2022-09-14T02:20:53.972Z,17.40
2022-09-14T02:23:22.094Z,17.40
2022-09-14T02:25:49.468Z,17.30
2022-09-14T02:28:16.614Z,17.30
2022-09-14T02:31:04.547Z,17.30
2022-09-14T02:33:45.969Z,17.40
2022-09-14T02:36:20.155Z,17.40
2022-09-14T02:38:56.688Z,17.40
2022-09-14T02:41:31.012Z,17.40
2022-09-14T02:44:22.951Z,17.40
2022-09-14T02:47:03.548Z,17.40
2022-09-14T02:49:50.810Z,17.50
2022-09-14T02:52:41.681Z,17.50
2022-09-14T02:55:19.812Z,17.40
2022-09-14T02:58:14.130Z,17.40
2022-09-14T03:00:47.034Z,17.50
2022-09-14T03:03:16.918Z,17.50
2022-09-14T03:05:44.395Z,17.50
2022-09-14T03:08:12.119Z,17.60
2022-09-14T03:10:42.491Z,17.50
2022-09-14T03:13:09.832Z,17.60
2022-09-14T03:15:37.164Z,17.60
2022-09-14T03:18:06.402Z,17.60
2022-09-14T03:20:34.729Z,17.60
2022-09-14T03:23:02.703Z,17.50
2022-09-14T03:25:30.271Z,17.50
2022-09-14T03:27:59.993Z,17.50
2022-09-14T03:30:29.261Z,17.50
2022-09-14T03:32:58.959Z,17.50
2022-09-14T03:35:26.202Z,17.40
2022-09-14T03:37:53.433Z,17.40
2022-09-14T03:40:22.016Z,17.40
2022-09-14T03:42:51.452Z,17.20
2022-09-14T03:45:22.628Z,17.20
2022-09-14T03:47:50.766Z,17.20
2022-09-14T03:50:22.721Z,17.10
2022-09-14T03:52:49.837Z,17.10
2022-09-14T03:55:17.168Z,17.10
2022-09-14T03:57:44.865Z,17.00
2022-09-14T04:00:12.253Z,17.00
2022-09-14T04:02:40.094Z,17.00
2022-09-14T04:05:07.773Z,16.90
2022-09-14T04:07:35.808Z,16.90
2022-09-14T04:10:05.777Z,16.80
2022-09-14T04:12:37.687Z,16.80
2022-09-14T04:15:06.656Z,16.80
2022-09-14T04:17:34.626Z,16.80
2022-09-14T04:20:02.074Z,16.80
2022-09-14T04:22:29.194Z,16.80
2022-09-14T04:24:56.283Z,16.80
2022-09-14T04:27:23.536Z,16.80
2022-09-14T04:29:51.345Z,16.80
2022-09-14T04:32:18.497Z,16.80
2022-09-14T04:34:45.621Z,16.80
2022-09-14T04:37:12.761Z,16.80
2022-09-14T04:39:41.020Z,16.80
2022-09-14T04:42:08.417Z,16.90
2022-09-14T04:44:35.481Z,16.90
2022-09-14T04:47:02.755Z,17.00
2022-09-14T04:49:30.099Z,17.00
2022-09-14T04:51:57.255Z,17.10
2022-09-14T04:54:25.308Z,17.20
2022-09-14T04:56:52.918Z,17.30
2022-09-14T04:59:20.043Z,17.40
2022-09-14T05:01:48.472Z,17.40
2022-09-14T05:04:15.918Z,17.50
2022-09-14T05:06:44.545Z,17.50
2022-09-14T05:09:14.779Z,17.50
2022-09-14T05:11:42.686Z,17.60
2022-09-14T05:14:12.258Z,17.60
2022-09-14T05:16:42.188Z,17.60
2022-09-14T05:19:13.331Z,17.60
2022-09-14T05:21:40.437Z,17.60
2022-09-14T05:24:12.643Z,17.60
2022-09-14T05:26:39.821Z,17.60
2022-09-14T05:29:07.158Z,17.60
2022-09-14T05:31:36.361Z,17.60
2022-09-14T05:34:03.540Z,17.60
2022-09-14T05:36:30.743Z,17.60
2022-09-14T05:38:57.999Z,17.60
2022-09-14T05:41:25.092Z,17.60
2022-09-14T05:43:52.194Z,17.60
2022-09-14T05:46:20.660Z,17.50
2022-09-14T05:48:51.776Z,17.50
2022-09-14T05:51:26.655Z,17.50
2022-09-14T05:53:57.024Z,17.50
2022-09-14T05:56:26.331Z,17.50
2022-09-14T05:58:54.061Z,17.50
2022-09-14T06:01:26.347Z,17.50
2022-09-14T06:03:55.102Z,17.50
2022-09-14T06:06:23.098Z,17.50
2022-09-14T06:08:52.782Z,17.50
2022-09-14T06:11:23.285Z,17.60
2022-09-14T06:13:53.436Z,17.60
2022-09-14T06:16:21.921Z,17.60
2022-09-14T06:18:52.527Z,17.60
2022-09-14T06:21:20.771Z,17.70
2022-09-14T06:23:49.517Z,17.80
2022-09-14T06:26:16.703Z,17.90
2022-09-14T06:28:44.277Z,18.00
2022-09-14T06:31:13.812Z,18.10
2022-09-14T06:33:45.294Z,18.20
2022-09-14T06:36:16.365Z,18.30
2022-09-14T06:38:44.485Z,18.30
2022-09-14T06:41:14.459Z,18.20
2022-09-14T06:43:42.760Z,18.20
2022-09-14T06:46:16.310Z,18.30
2022-09-14T06:49:01.967Z,18.30
2022-09-14T06:51:40.610Z,18.40
2022-09-14T06:54:10.494Z,18.40
2022-09-14T06:56:39.786Z,18.50
2022-09-14T06:59:09.015Z,18.50
2022-09-14T07:01:36.898Z,18.50
2022-09-14T07:04:05.365Z,18.60
2022-09-14T07:06:42.936Z,18.70
2022-09-14T07:09:10.613Z,18.80
2022-09-14T07:11:38.549Z,18.80
2022-09-14T07:14:06.667Z,18.80
2022-09-14T07:16:35.933Z,18.80
2022-09-14T07:19:05.789Z,18.80
2022-09-14T07:21:34.167Z,18.80
2022-09-14T07:24:02.090Z,18.90
2022-09-14T07:26:31.644Z,19.00
2022-09-14T07:29:05.448Z,19.00
2022-09-14T07:31:37.065Z,19.10
2022-09-14T07:34:05.559Z,19.10
2022-09-14T07:36:38.778Z,19.10
2022-09-14T07:39:10.703Z,19.20
2022-09-14T07:41:42.501Z,19.20
2022-09-14T07:44:13.459Z,19.20
2022-09-14T07:46:45.448Z,19.20
2022-09-14T07:49:14.407Z,19.10
2022-09-14T07:51:44.421Z,19.10
2022-09-14T07:54:16.853Z,19.00
2022-09-14T07:56:46.150Z,18.90
2022-09-14T07:59:36.795Z,18.90
2022-09-14T08:02:08.960Z,18.80
2022-09-14T08:04:43.807Z,18.80
2022-09-14T08:07:14.387Z,18.90
2022-09-14T08:09:44.712Z,18.90
2022-09-14T08:12:11.943Z,19.00
2022-09-14T08:14:39.130Z,19.20
2022-09-14T08:17:06.251Z,19.40
2022-09-14T08:19:33.415Z,19.60
2022-09-14T08:22:00.794Z,19.70
2022-09-14T08:24:27.906Z,19.80
2022-09-14T08:26:55.430Z,20.00
2022-09-14T08:29:22.637Z,20.20
2022-09-14T08:31:51.732Z,20.30
2022-09-14T08:34:22.800Z,20.40
2022-09-14T08:36:50.405Z,20.40
2022-09-14T08:39:18.193Z,20.30
2022-09-14T08:41:55.770Z,20.40
2022-09-14T08:44:30.527Z,20.50
2022-09-14T08:47:04.291Z,20.60
2022-09-14T08:49:48.553Z,20.70
2022-09-14T08:52:37.287Z,20.60
2022-09-14T08:55:36.431Z,20.60
2022-09-14T08:58:20.657Z,20.60
2022-09-14T09:00:53.609Z,20.80
2022-09-14T09:03:39.028Z,21.00
2022-09-14T09:06:28.291Z,21.10
2022-09-14T09:08:59.234Z,21.20
2022-09-14T09:11:32.126Z,21.30
2022-09-14T09:13:59.660Z,21.40
2022-09-14T09:16:27.361Z,21.50
2022-09-14T09:19:02.621Z,21.50
2022-09-14T09:21:35.757Z,21.50
2022-09-14T09:24:12.885Z,21.50
2022-09-14T09:26:40.410Z,21.50
2022-09-14T09:29:10.163Z,21.60
2022-09-14T09:31:50.450Z,21.90
2022-09-14T09:34:26.886Z,22.20
2022-09-14T09:36:56.589Z,22.40
2022-09-14T09:39:24.511Z,22.60
2022-09-14T09:42:12.307Z,22.80
2022-09-14T09:45:03.149Z,22.90
2022-09-14T09:47:37.172Z,23.00
2022-09-14T09:50:21.095Z,23.10
2022-09-14T09:53:02.132Z,23.20
2022-09-14T09:55:39.974Z,23.30
2022-09-14T09:58:28.306Z,23.30
2022-09-14T10:01:07.714Z,23.30
2022-09-14T10:03:39.846Z,23.20
2022-09-14T10:06:18.015Z,23.20
2022-09-14T10:08:47.568Z,23.20
2022-09-14T10:11:37.978Z,23.30
2022-09-14T10:14:18.893Z,23.40
2022-09-14T10:16:46.245Z,23.40
2022-09-14T10:19:22.311Z,23.30
2022-09-14T10:22:06.048Z,23.20
2022-09-14T10:24:36.071Z,23.20
2022-09-14T10:27:38.125Z,23.20
2022-09-14T10:30:20.983Z,23.30
2022-09-14T10:32:56.431Z,23.40
2022-09-14T10:35:30.505Z,23.40
2022-09-14T10:38:05.173Z,23.40
2022-09-14T10:40:38.312Z,23.40
2022-09-14T10:43:17.972Z,23.40
2022-09-14T10:45:53.826Z,23.20
2022-09-14T10:48:32.446Z,23.10
2022-09-14T10:51:06.145Z,23.00
2022-09-14T10:54:01.436Z,22.90
2022-09-14T10:57:20.117Z,22.90
2022-09-14T11:00:01.765Z,22.70
2022-09-14T11:02:50.740Z,22.70
2022-09-14T11:05:23.142Z,22.50
2022-09-14T11:08:02.127Z,22.40
2022-09-14T11:10:54.209Z,22.30
2022-09-14T11:13:33.494Z,22.20
2022-09-14T11:16:24.368Z,22.10
2022-09-14T11:19:09.769Z,22.00
2022-09-14T11:21:40.066Z,21.90
2022-09-14T11:24:35.858Z,21.90
2022-09-14T11:27:29.172Z,21.90
2022-09-14T11:30:03.061Z,22.00
2022-09-14T11:32:36.026Z,22.20
2022-09-14T11:35:26.993Z,22.40
2022-09-14T11:38:12.912Z,22.40
2022-09-14T11:40:47.808Z,22.60
2022-09-14T11:43:43.213Z,22.70
2022-09-14T11:46:15.001Z,22.90
2022-09-14T11:48:57.655Z,22.90
2022-09-14T11:51:32.632Z,23.00
2022-09-14T11:53:59.989Z,22.90
2022-09-14T11:56:32.577Z,22.80
2022-09-14T11:59:04.300Z,22.70
2022-09-14T12:01:37.072Z,22.70
2022-09-14T12:04:13.503Z,22.50
2022-09-14T12:06:40.961Z,22.40
2022-09-14T12:09:17.437Z,22.30
2022-09-14T12:11:46.543Z,22.30
2022-09-14T12:14:29.770Z,22.40
2022-09-14T12:17:38.896Z,22.40
2022-09-14T12:20:34.223Z,22.40
2022-09-14T12:23:18.594Z,22.50
2022-09-14T12:26:10.928Z,22.60
2022-09-14T12:28:38.222Z,22.70
2022-09-14T12:31:09.926Z,22.80
2022-09-14T12:33:37.927Z,22.70
2022-09-14T12:36:32.149Z,22.80
2022-09-14T12:39:06.571Z,22.80
2022-09-14T12:41:36.667Z,22.80
2022-09-14T12:44:25.222Z,22.80
2022-09-14T12:46:52.557Z,22.80
2022-09-14T12:49:29.418Z,22.70
2022-09-14T12:52:00.938Z,22.70
2022-09-14T12:54:51.079Z,22.80
2022-09-14T12:57:34.514Z,22.80
2022-09-14T13:00:13.710Z,22.90
2022-09-14T13:03:00.701Z,23.00
2022-09-14T13:05:32.221Z,23.10
2022-09-14T13:08:00.084Z,23.20
2022-09-14T13:10:37.156Z,23.30
2022-09-14T13:13:18.966Z,23.40
2022-09-14T13:15:53.815Z,23.40
2022-09-14T13:18:21.152Z,23.40
2022-09-14T13:20:54.927Z,23.40
2022-09-14T13:23:38.738Z,23.50
2022-09-14T13:26:11.448Z,23.50
2022-09-14T13:28:44.980Z,23.60
2022-09-14T13:31:17.056Z,23.60
2022-09-14T13:33:52.085Z,23.60
2022-09-14T13:36:29.522Z,23.60
2022-09-14T13:39:01.336Z,23.60
2022-09-14T13:41:33.657Z,23.70
2022-09-14T13:44:01.115Z,23.60
2022-09-14T13:46:28.698Z,23.70
2022-09-14T13:48:56.240Z,23.80
2022-09-14T13:51:28.460Z,23.80
2022-09-14T13:54:15.662Z,23.80
2022-09-14T13:56:42.774Z,23.80
2022-09-14T13:59:12.646Z,23.90
2022-09-14T14:01:43.359Z,23.80
2022-09-14T14:04:27.572Z,23.80
2022-09-14T14:07:12.973Z,23.80
2022-09-14T14:09:51.331Z,23.80
2022-09-14T14:12:39.494Z,23.80
2022-09-14T14:15:27.994Z,23.90
2022-09-14T14:17:55.218Z,23.90
2022-09-14T14:20:35.885Z,24.00
2022-09-14T14:23:06.116Z,24.10
2022-09-14T14:25:43.371Z,24.20
2022-09-14T14:28:22.143Z,24.30
2022-09-14T14:30:49.713Z,24.40
2022-09-14T14:33:22.659Z,24.40
2022-09-14T14:35:57.115Z,24.40
2022-09-14T14:38:25.094Z,24.30
2022-09-14T14:40:55.266Z,24.30
2022-09-14T14:43:25.396Z,24.30
2022-09-14T14:45:58.773Z,24.40
2022-09-14T14:48:26.797Z,24.40
2022-09-14T14:50:55.760Z,24.40
2022-09-14T14:53:24.370Z,24.40
2022-09-14T14:55:54.913Z,24.40
2022-09-14T14:58:24.669Z,24.50
2022-09-14T15:00:53.067Z,24.50
2022-09-14T15:03:20.313Z,24.50
2022-09-14T15:05:48.685Z,24.50
2022-09-14T15:08:19.849Z,24.60
2022-09-14T15:10:47.264Z,24.60
2022-09-14T15:13:16.855Z,24.70
2022-09-14T15:15:45.281Z,24.70
2022-09-14T15:18:12.448Z,24.70
2022-09-14T15:20:39.729Z,24.70
2022-09-14T15:23:06.981Z,24.70
2022-09-14T15:25:34.230Z,24.80
2022-09-14T15:28:01.414Z,24.80
2022-09-14T15:30:28.558Z,24.80
2022-09-14T15:32:55.631Z,24.80
2022-09-14T15:35:23.869Z,24.90
2022-09-14T15:37:52.454Z,24.90
2022-09-14T15:40:20.566Z,24.90
2022-09-14T15:42:47.749Z,25.00
2022-09-14T15:45:15.004Z,24.90
2022-09-14T15:47:43.066Z,24.90
2022-09-14T15:50:11.707Z,24.80
2022-09-14T15:52:41.401Z,24.70
2022-09-14T15:55:10.533Z,24.60
2022-09-14T15:57:39.023Z,24.50
2022-09-14T16:00:09.676Z,24.40
2022-09-14T16:02:37.059Z,24.40
2022-09-14T16:05:04.561Z,24.30
2022-09-14T16:07:31.784Z,24.20
2022-09-14T16:09:59.309Z,24.20
2022-09-14T16:12:26.800Z,24.20
2022-09-14T16:14:53.900Z,24.10
2022-09-14T16:17:22.089Z,24.10
2022-09-14T16:19:50.602Z,24.00
2022-09-14T16:22:19.258Z,24.00
2022-09-14T16:24:46.431Z,24.00
2022-09-14T16:27:13.589Z,23.90
2022-09-14T16:29:40.872Z,23.90
2022-09-14T16:32:08.082Z,23.90
2022-09-14T16:34:38.121Z,23.90
2022-09-14T16:37:05.274Z,23.90
2022-09-14T16:39:35.191Z,23.80
2022-09-14T16:42:08.052Z,23.80
2022-09-14T16:44:35.210Z,23.70
2022-09-14T16:47:02.710Z,23.60
2022-09-14T16:49:30.259Z,23.60
2022-09-14T16:52:00.658Z,23.50
2022-09-14T16:54:29.932Z,23.40
2022-09-14T16:57:00.367Z,23.30
2022-09-14T16:59:27.988Z,23.20
2022-09-14T17:01:55.713Z,23.20
2022-09-14T17:04:24.487Z,23.10
2022-09-14T17:06:52.985Z,23.10
2022-09-14T17:09:32.769Z,23.00
2022-09-14T17:12:02.964Z,23.00
2022-09-14T17:14:32.524Z,22.90
2022-09-14T17:17:00.483Z,22.90
2022-09-14T17:19:28.459Z,22.80
2022-09-14T17:21:55.688Z,22.70
2022-09-14T17:24:23.112Z,22.60
2022-09-14T17:26:50.282Z,22.50
2022-09-14T17:29:18.783Z,22.50
2022-09-14T17:31:45.999Z,22.40
2022-09-14T17:34:15.903Z,22.40
2022-09-14T17:36:43.668Z,22.30
2022-09-14T17:39:13.270Z,22.20
2022-09-14T17:41:46.791Z,22.20
2022-09-14T17:44:14.658Z,22.20
2022-09-14T17:46:51.662Z,22.10
2022-09-14T17:49:21.675Z,22.10
2022-09-14T17:51:49.494Z,22.10
2022-09-14T17:54:17.773Z,22.00
2022-09-14T17:56:45.274Z,22.00
2022-09-14T17:59:16.274Z,22.00
2022-09-14T18:01:43.518Z,22.00
2022-09-14T18:04:12.311Z,21.90
2022-09-14T18:06:42.150Z,21.90
2022-09-14T18:09:13.115Z,21.80
2022-09-14T18:11:40.716Z,21.80
2022-09-14T18:14:12.721Z,21.80
2022-09-14T18:16:41.034Z,21.80
2022-09-14T18:19:08.484Z,21.80
2022-09-14T18:21:36.515Z,21.70
2022-09-14T18:24:04.233Z,21.70
2022-09-14T18:26:31.402Z,21.70
2022-09-14T18:28:58.860Z,21.60
2022-09-14T18:31:26.763Z,21.60
2022-09-14T18:33:58.380Z,21.50
2022-09-14T18:36:28.835Z,21.50
2022-09-14T18:38:57.929Z,21.50
2022-09-14T18:41:26.574Z,21.50
2022-09-14T18:43:54.712Z,21.40
2022-09-14T18:46:27.122Z,21.40
2022-09-14T18:48:57.642Z,21.40
2022-09-14T18:51:25.447Z,21.40
2022-09-14T18:54:01.196Z,21.30
2022-09-14T18:56:35.055Z,21.30
2022-09-14T18:59:04.096Z,21.30
2022-09-14T19:01:33.614Z,21.30
2022-09-14T19:04:27.699Z,21.40
2022-09-14T19:06:54.770Z,21.40
2022-09-14T19:09:22.305Z,21.40
2022-09-14T19:11:49.468Z,21.50
2022-09-14T19:14:17.576Z,21.50
2022-09-14T19:16:44.693Z,21.50
2022-09-14T19:19:26.252Z,21.60
2022-09-14T19:21:54.245Z,21.50
2022-09-14T19:24:22.557Z,21.60
2022-09-14T19:26:52.868Z,21.60
2022-09-14T19:29:22.770Z,21.60
2022-09-14T19:31:51.811Z,21.60
2022-09-14T19:34:24.550Z,21.70
2022-09-14T19:36:56.318Z,21.70
2022-09-14T19:39:31.114Z,21.70
2022-09-14T19:41:58.381Z,21.70
2022-09-14T19:44:28.061Z,21.70
2022-09-14T19:47:02.177Z,21.80
2022-09-14T19:49:30.814Z,21.80
2022-09-14T19:51:58.242Z,21.80
2022-09-14T19:54:25.439Z,21.80
2022-09-14T19:56:52.538Z,21.80
2022-09-14T19:59:20.006Z,21.80
2022-09-14T20:01:47.651Z,21.80
2022-09-14T20:04:15.847Z,21.80
2022-09-14T20:06:44.564Z,21.80
2022-09-14T20:09:18.612Z,21.80
2022-09-14T20:11:47.267Z,21.80
2022-09-14T20:14:17.112Z,21.70
2022-09-14T20:16:53.314Z,21.70
2022-09-14T20:19:23.956Z,21.60
2022-09-14T20:21:52.012Z,21.60
2022-09-14T20:24:25.895Z,21.50
2022-09-14T20:26:59.852Z,21.50
2022-09-14T20:29:32.115Z,21.40
2022-09-14T20:31:59.762Z,21.40
2022-09-14T20:34:27.354Z,21.40
2022-09-14T20:36:54.952Z,21.30
2022-09-14T20:39:23.289Z,21.30
2022-09-14T20:41:50.610Z,21.30
2022-09-14T20:44:22.361Z,21.30
2022-09-14T20:46:53.534Z,21.30
2022-09-14T20:49:22.506Z,21.30
2022-09-14T20:51:52.601Z,21.20
2022-09-14T20:54:20.026Z,21.20
2022-09-14T20:56:47.217Z,21.20
2022-09-14T20:59:18.356Z,21.10
2022-09-14T21:01:49.822Z,21.10
2022-09-14T21:04:21.622Z,21.10
2022-09-14T21:06:52.783Z,21.00
2022-09-14T21:09:22.096Z,20.90
2022-09-14T21:11:49.424Z,20.90
2022-09-14T21:14:18.739Z,20.90
2022-09-14T21:16:48.105Z,20.90
2022-09-14T21:19:27.280Z,20.90
2022-09-14T21:21:55.944Z,20.90
2022-09-14T21:24:23.571Z,20.90
2022-09-14T21:26:50.865Z,20.80
2022-09-14T21:29:22.606Z,20.80
2022-09-14T21:31:50.376Z,20.80
2022-09-14T21:34:17.943Z,20.80
2022-09-14T21:36:48.173Z,20.80
2022-09-14T21:39:19.371Z,20.80
2022-09-14T21:41:46.546Z,20.80
2022-09-14T21:44:13.920Z,20.70
2022-09-14T21:46:41.536Z,20.70
2022-09-14T21:49:14.212Z,20.80
2022-09-14T21:51:44.379Z,20.70
2022-09-14T21:54:12.982Z,20.80
2022-09-14T21:56:42.760Z,20.70
2022-09-14T21:59:23.282Z,20.70
2022-09-14T22:01:51.317Z,20.70
2022-09-14T22:04:20.994Z,20.70
2022-09-14T22:06:51.381Z,20.60
2022-09-14T22:09:20.923Z,20.60
2022-09-14T22:11:49.040Z,20.60
2022-09-14T22:14:19.617Z,20.60
2022-09-14T22:16:47.732Z,20.60
2022-09-14T22:19:25.954Z,20.60
2022-09-14T22:21:53.507Z,20.60
2022-09-14T22:24:37.400Z,20.50
2022-09-14T22:27:10.082Z,20.50
2022-09-14T22:29:40.765Z,20.40
2022-09-14T22:32:11.207Z,20.40
2022-09-14T22:34:49.618Z,20.40
2022-09-14T22:37:16.900Z,20.40
2022-09-14T22:39:44.009Z,20.40
2022-09-14T22:42:18.786Z,20.40
2022-09-14T22:44:45.924Z,20.40
2022-09-14T22:47:14.042Z,20.40
2022-09-14T22:49:41.090Z,20.40
2022-09-14T22:52:08.348Z,20.40
2022-09-14T22:54:35.446Z,20.30
2022-09-14T22:57:02.590Z,20.40
2022-09-14T22:59:30.007Z,20.40
2022-09-14T23:01:57.355Z,20.30
2022-09-14T23:04:24.624Z,20.30
2022-09-14T23:06:52.983Z,20.30
2022-09-14T23:09:22.170Z,20.30
2022-09-14T23:11:49.457Z,20.30
2022-09-14T23:14:17.136Z,20.30
2022-09-14T23:16:47.104Z,20.20
2022-09-14T23:19:17.192Z,20.20
2022-09-14T23:21:44.898Z,20.20
2022-09-14T23:24:12.331Z,20.20
2022-09-14T23:26:39.830Z,20.20
2022-09-14T23:29:13.654Z,20.20
2022-09-14T23:31:40.920Z,20.20
2022-09-14T23:34:09.285Z,20.20
2022-09-14T23:36:36.510Z,20.20
2022-09-14T23:39:03.992Z,20.10
2022-09-14T23:41:31.875Z,20.10
2022-09-14T23:43:59.123Z,20.10
2022-09-14T23:46:28.967Z,20.10
2022-09-14T23:48:56.408Z,20.10
2022-09-14T23:51:23.522Z,20.00
2022-09-14T23:53:52.531Z,20.00
2022-09-14T23:56:19.949Z,20.10
2022-09-14T23:58:49.174Z,20.10
